TTPPTAPA

Guest
Details From TTPP - Trinidad/Piarco Intl
To TAPA - Antigua - V C Bird Intl
Flight Number -
Tags generated
Created
Modified
Stats Distance 410 nm / 759 km
Max Altitude 34,000 ft / 10,363 m
Waypoints 5
Social Downloads 0
Likes 0
Share VATSIM

Download

Looking for another format? Having issues loading an existing format? Contact us
Advertisement - Login to hide

Notes

Basic altitude profile: - Ascent Rate: 2500ft/min - Ascent Speed: 250kts - Cruise Altitude: 35000ft - Cruise Speed: 420kts - Descent Rate: 1500ft/min - Descent Speed: 250kts Options: - Use NATs: yes - Use PACOTS: yes - Use low airways: yes - Use high airways: yes

Route

TTPP POS UL205 ANU TAPA

ID Type Via Altitude Latitude Longitude Leg Dist Tot Dist Heading (true) Name
O TTPP APT - 0 ft / 0 m 10.59537˚ -61.33724˚ - 0 nm - Trinidad/Piarco Intl
POS VOR - 3,000 ft / 914 m 10.46639˚ -61.39236˚ 8 nm 8 nm 203° / 203° PIARCO VOR-DME
LIMBO FIX UL205 (AWY-HI) 34,000 ft / 10,363 m 14.20556˚ -61.61833˚ 224 nm 233 nm 357° / 357° -
ANU NDB UL205 (AWY-HI) 24,500 ft / 7,468 m 17.12588˚ -61.80017˚ 175 nm 409 nm 357° / 357° V C BIRD NDB
O TAPA APT - 0 ft / 0 m 17.13674˚ -61.79266˚ 0 nm 409 nm 33° / 33° Antigua - V C Bird Intl

Altitude Profile

Advertisement - Login to hide

Weather


0- 5 10 15 20 25 30 35+ Temperature / ° C

Clouds and Precipitation
Forecast for 2017-12-15 00:00 UTC. Updated 6 minutes ago

Ground ~20,000 ft ~40,000 ft Winds

TTPP

Details ICAO TTPP (POS)
Name Trinidad/Piarco Intl
Region Trinidad and Tobago
Timezone America/Port_of_Spain (UTC-4.0)
Stats Elevation 57 ft / 17 m (AMSL)
Location 10.595370° -61.337239°
Runways 1
Magnetic Variation 15.001° W

METAR

TTPP 142300Z 09008KT 9999 FEW020 26/23 Q1013 NOSIG

Decode

TAF

Not found

Departure Runways

ID Width Length Bearing (true) Bearing (mag) Surface Threshold Offset Overrun Length
10 151 ft / 46 m 10,486 ft / 3,196 m 89.83° 104.83° Asphalt 0 ft / 0 m 79 ft / 24 m
28 151 ft / 46 m 10,486 ft / 3,196 m 269.84° 284.84° Asphalt 0 ft / 0 m 184 ft / 56 m

TAPA

Details ICAO TAPA (ANU)
Name Antigua - V C Bird Intl
Region Antigua and Barbuda
Timezone America/Antigua (UTC-4.0)
Stats Elevation 62 ft / 19 m (AMSL)
Location 17.136737° -61.792662°
Runways 1
Magnetic Variation 14.767° W

METAR

TAPA 142300Z 08007KT 9999 FEW020 26/21 Q1017 NOSIG

Decode

TAF

TAF TAPA 141700Z 1418/1518 07012KT 9999 SCT022 PROB30 TEMPO 1504/1510 SHRA

Decode

Destination Runways

ID Width Length Bearing (true) Bearing (mag) Surface Threshold Offset Overrun Length
07 148 ft / 45 m 9,022 ft / 2,750 m 58.28° 73.05° Asphalt 656 ft / 200 m 0 ft / 0 m
25 148 ft / 45 m 9,022 ft / 2,750 m 238.29° 253.06° Asphalt 0 ft / 0 m 0 ft / 0 m

Popular Alternatives